Time;durP1;ratioP1;P1;durP2;ratioP2;P2;SDS_P1;SDS_P2;PMS_P1;PMS_P2;Temp;Humidity;BMP_temperature;BMP_pressure;BME280_temperature;BME280_humidity;BME280_pressure;Samples;Min_cycle;Max_cycle;Signal;HPM_P1;HPM_P2
2023/05/25 00:00:52;;;;;;;;;;;;;;;16.79;100.00;99741.06;5037131;28;19920;-39
2023/05/25 00:03:18;;;;;;;;;;;;;;;16.80;100.00;99738.41;5020346;28;20035;-39
2023/05/25 00:05:44;;;;;;;;;;;;;;;16.13;100.00;99759.56;5020466;28;19927;-39
2023/05/25 00:08:09;;;;;;;;;;;;;;;16.14;100.00;99774.25;5038831;28;19921;-39
2023/05/25 00:10:34;;;;;;;;;;;;;;;15.80;100.00;99773.03;5039017;28;19927;-39
2023/05/25 00:13:00;;;;;;;;;;;;;;;15.99;100.00;99775.75;5038839;28;19939;-39
2023/05/25 00:15:25;;;;;;;;;;;;;;;16.23;100.00;99779.88;5036008;28;19927;-39
2023/05/25 00:17:53;;;;;;;;;;;;;;;16.12;100.00;99776.06;5038145;28;20095;-39
2023/05/25 00:20:18;;;;;;;;;;;;;;;16.41;100.00;99767.00;5037476;28;19933;-39
2023/05/25 00:22:43;;;;;;;;;;;;;;;16.51;100.00;99763.09;5038914;28;19916;-39
2023/05/25 00:25:09;;;;;;;;;;;;;;;16.34;100.00;99760.41;5041745;28;19913;-39
2023/05/25 00:27:34;;;;;;;;;;;;;;;16.89;100.00;99747.53;5040972;28;19924;-39
2023/05/25 00:29:59;;;;;;;;;;;;;;;16.78;100.00;99753.19;5039984;28;20615;-39
2023/05/25 00:32:24;;;;;;;;;;;;;;;17.22;100.00;99731.25;5042422;28;19916;-39
2023/05/25 00:34:50;;;;;;;;;;;;;;;17.39;100.00;99715.69;5041790;28;20042;-39
2023/05/25 00:37:15;;;;;;;;;;;;;;;17.10;100.00;99720.50;5040921;28;19924;-39
2023/05/25 00:39:40;;;;;;;;;;;;;;;17.20;100.00;99720.09;5022220;28;19986;-39
2023/05/25 00:42:06;;;;;;;;;;;;;;;16.65;100.00;99745.13;5024025;28;19921;-39
2023/05/25 00:44:31;;;;;;;;;;;;;;;16.28;100.00;99762.34;5015479;28;19924;-39
2023/05/25 00:46:56;;;;;;;;;;;;;;;16.39;100.00;99759.28;5040832;28;19960;-39
2023/05/25 00:49:22;;;;;;;;;;;;;;;16.22;100.00;99770.41;5042281;28;19971;-39
2023/05/25 00:51:47;;;;;;;;;;;;;;;16.14;100.00;99767.28;5041845;28;19944;-39
2023/05/25 00:54:16;;;;;;;;;;;;;;;15.02;100.00;99792.50;5041754;28;20347;-39
2023/05/25 00:56:51;;;;;;;;;;;;;;;16.00;100.00;99780.03;5023111;28;19928;-39
2023/05/25 00:59:16;;;;;;;;;;;;;;;16.31;100.00;99775.22;5023623;28;19920;-39
2023/05/25 01:01:43;;;;;;;;;;;;;;;16.91;100.00;99745.72;5023372;28;19932;-39
2023/05/25 01:04:08;;;;;;;;;;;;;;;16.61;100.00;99751.38;5022634;28;19952;-39
2023/05/25 01:06:35;;;;;;;;;;;;;;;16.04;100.00;99782.44;5021118;28;19979;-39
2023/05/25 01:09:00;;;;;;;;;;;;;;;16.20;100.00;99769.63;5038727;28;19917;-39
2023/05/25 01:11:27;;;;;;;;;;;;;;;16.73;100.00;99753.41;5021730;28;20273;-39
2023/05/25 01:13:53;;;;;;;;;;;;;;;17.04;100.00;99752.06;5038817;28;19928;-39
2023/05/25 01:16:19;;;;;;;;;;;;;;;16.83;100.00;99738.28;5018550;28;20285;-39
2023/05/25 01:18:46;;;;;;;;;;;;;;;17.08;100.00;99737.97;5038234;28;19999;-39
2023/05/25 01:21:18;;;;;;;;;;;;;;;17.27;100.00;99722.31;5038274;28;20220;-39
2023/05/25 01:23:52;;;;;;;;;;;;;;;16.78;100.00;99739.34;5039158;28;20024;-39
2023/05/25 01:26:17;;;;;;;;;;;;;;;16.79;100.00;99747.13;5020429;28;19928;-39
2023/05/25 01:28:45;;;;;;;;;;;;;;;16.39;100.00;99758.44;5019925;28;19926;-39
2023/05/25 01:31:10;;;;;;;;;;;;;;;16.31;100.00;99767.41;5021046;28;19982;-39
2023/05/25 01:33:35;;;;;;;;;;;;;;;16.86;100.00;99758.09;5021267;28;20369;-39
2023/05/25 01:36:00;;;;;;;;;;;;;;;16.62;100.00;99749.63;5016514;28;19931;-39
2023/05/25 01:38:26;;;;;;;;;;;;;;;16.41;100.00;99765.25;5038476;28;20008;-39
2023/05/25 01:40:51;;;;;;;;;;;;;;;16.72;100.00;99756.94;5038560;28;20024;-39
2023/05/25 01:43:16;;;;;;;;;;;;;;;17.23;100.00;99741.59;5038061;28;20019;-39
2023/05/25 01:45:41;;;;;;;;;;;;;;;16.98;100.00;99731.50;5035775;28;20007;-39
2023/05/25 01:48:21;;;;;;;;;;;;;;;16.75;100.00;99744.72;5038607;28;20289;-39
2023/05/25 01:51:05;;;;;;;;;;;;;;;16.66;100.00;99746.81;5019851;28;19952;-39
2023/05/25 01:53:39;;;;;;;;;;;;;;;16.81;100.00;99747.03;5037796;28;20362;-39
2023/05/25 01:56:07;;;;;;;;;;;;;;;16.18;100.00;99755.84;5003912;28;20313;-39
2023/05/25 01:58:37;;;;;;;;;;;;;;;16.38;100.00;99761.97;5038808;28;20016;-39
2023/05/25 02:01:02;;;;;;;;;;;;;;;16.64;100.00;99753.00;5019100;28;19920;-39
2023/05/25 02:03:27;;;;;;;;;;;;;;;16.28;100.00;99766.69;5038371;28;20263;-39
2023/05/25 02:05:53;;;;;;;;;;;;;;;15.99;100.00;99765.34;5037595;28;19924;-40
2023/05/25 02:08:19;;;;;;;;;;;;;;;16.28;100.00;99764.09;5019696;28;19924;-39
2023/05/25 02:10:45;;;;;;;;;;;;;;;16.53;100.00;99743.06;5038132;28;19920;-39
2023/05/25 02:13:10;;;;;;;;;;;;;;;16.35;100.00;99746.47;5037811;28;19927;-39
2023/05/25 02:15:35;;;;;;;;;;;;;;;16.23;100.00;99758.25;5035682;28;20011;-39
2023/05/25 02:18:00;;;;;;;;;;;;;;;16.27;100.00;99758.06;5038438;28;19939;-39
2023/05/25 02:20:26;;;;;;;;;;;;;;;16.07;100.00;99755.47;5036817;28;20108;-39
2023/05/25 02:22:52;;;;;;;;;;;;;;;16.45;100.00;99743.41;5036538;28;19927;-39
2023/05/25 02:25:17;;;;;;;;;;;;;;;16.84;100.00;99719.16;5038094;28;20317;-39
2023/05/25 02:27:42;;;;;;;;;;;;;;;16.98;100.00;99699.44;5037300;28;20321;-39
2023/05/25 02:30:08;;;;;;;;;;;;;;;17.00;100.00;99695.84;5018028;28;20336;-39
2023/05/25 02:32:34;;;;;;;;;;;;;;;16.99;100.00;99695.91;5037350;28;19925;-40
2023/05/25 02:34:59;;;;;;;;;;;;;;;16.97;100.00;99697.75;5037880;28;19916;-39
2023/05/25 02:37:24;;;;;;;;;;;;;;;16.93;100.00;99697.06;5036611;28;20059;-39
2023/05/25 02:39:49;;;;;;;;;;;;;;;16.55;100.00;99712.63;5037757;28;19923;-39
2023/05/25 02:42:15;;;;;;;;;;;;;;;16.28;100.00;99725.09;5036784;28;20303;-39
2023/05/25 02:44:41;;;;;;;;;;;;;;;16.51;100.00;99721.47;5036509;28;20393;-39
2023/05/25 02:47:06;;;;;;;;;;;;;;;16.22;100.00;99730.59;5035759;28;20177;-39
2023/05/25 02:49:33;;;;;;;;;;;;;;;16.22;100.00;99726.22;5037341;28;20011;-39
2023/05/25 02:51:58;;;;;;;;;;;;;;;16.49;100.00;99712.94;5037338;28;19917;-40
2023/05/25 02:54:23;;;;;;;;;;;;;;;16.66;100.00;99704.34;5037051;28;19927;-39
2023/05/25 02:56:48;;;;;;;;;;;;;;;16.84;100.00;99706.13;5037325;28;19916;-39
2023/05/25 02:59:14;;;;;;;;;;;;;;;16.75;100.00;99709.13;5037734;28;20195;-39
2023/05/25 03:01:40;;;;;;;;;;;;;;;16.77;100.00;99702.09;5036886;28;19927;-40
2023/05/25 03:04:06;;;;;;;;;;;;;;;16.83;100.00;99708.81;5036387;28;19963;-41
2023/05/25 03:06:32;;;;;;;;;;;;;;;16.56;100.00;99729.94;5036748;28;20664;-42
2023/05/25 03:08:57;;;;;;;;;;;;;;;15.96;100.00;99749.88;5037267;28;19978;-41
2023/05/25 03:11:22;;;;;;;;;;;;;;;15.47;100.00;99776.91;5038351;28;20373;-41
2023/05/25 03:13:47;;;;;;;;;;;;;;;15.34;100.00;99775.69;5036310;28;20031;-41
2023/05/25 03:16:13;;;;;;;;;;;;;;;15.46;100.00;99787.34;5035452;28;20015;-41
2023/05/25 03:18:38;;;;;;;;;;;;;;;14.88;100.00;99805.16;5037569;28;19916;-41
2023/05/25 03:21:03;;;;;;;;;;;;;;;15.05;100.00;99814.00;5036766;28;20019;-42
2023/05/25 03:23:29;;;;;;;;;;;;;;;16.06;100.00;99771.97;5036943;28;19913;-42
2023/05/25 03:25:54;;;;;;;;;;;;;;;16.20;100.00;99759.22;5036381;28;19921;-41
2023/05/25 03:28:19;;;;;;;;;;;;;;;16.24;100.00;99763.41;5037391;28;19920;-41
2023/05/25 03:30:44;;;;;;;;;;;;;;;16.04;100.00;99769.44;5036509;28;19913;-41
2023/05/25 03:33:12;;;;;;;;;;;;;;;15.79;100.00;99785.19;5036576;28;19917;-41
2023/05/25 03:35:37;;;;;;;;;;;;;;;15.77;100.00;99783.56;5036727;28;19956;-41
2023/05/25 03:38:03;;;;;;;;;;;;;;;15.41;100.00;99794.47;5036823;28;19956;-41
2023/05/25 03:40:28;;;;;;;;;;;;;;;15.45;100.00;99796.91;5036992;28;19955;-41
2023/05/25 03:42:53;;;;;;;;;;;;;;;15.59;100.00;99792.91;5036039;28;19917;-41
2023/05/25 03:45:18;;;;;;;;;;;;;;;15.66;100.00;99800.38;5034224;28;20148;-41
2023/05/25 03:47:44;;;;;;;;;;;;;;;15.94;100.00;99788.91;5036270;28;20824;-41
2023/05/25 03:50:10;;;;;;;;;;;;;;;15.76;100.00;99784.47;5036475;28;19921;-41
2023/05/25 03:52:35;;;;;;;;;;;;;;;15.43;100.00;99790.91;5036455;28;20381;-41
2023/05/25 03:55:00;;;;;;;;;;;;;;;14.98;100.00;99816.88;5036645;28;19928;-41
2023/05/25 03:57:26;;;;;;;;;;;;;;;15.14;100.00;99817.13;5036299;28;19917;-41
2023/05/25 03:59:51;;;;;;;;;;;;;;;15.21;100.00;99808.22;5037578;28;19921;-41
2023/05/25 04:02:16;;;;;;;;;;;;;;;15.66;100.00;99794.34;5040114;28;19927;-41
2023/05/25 04:04:42;;;;;;;;;;;;;;;15.82;100.00;99785.06;5040736;28;20007;-41
2023/05/25 04:07:07;;;;;;;;;;;;;;;16.23;100.00;99784.25;5040466;28;19921;-41
2023/05/25 04:09:33;;;;;;;;;;;;;;;16.36;100.00;99785.41;5039791;28;19939;-40
2023/05/25 04:11:58;;;;;;;;;;;;;;;15.60;100.00;99804.97;5039852;28;19921;-40
2023/05/25 04:14:23;;;;;;;;;;;;;;;15.70;100.00;99814.09;5039187;28;20345;-40
2023/05/25 04:16:48;;;;;;;;;;;;;;;16.05;100.00;99802.28;5039364;28;19986;-40
2023/05/25 04:19:14;;;;;;;;;;;;;;;16.39;100.00;99802.63;5039240;28;20118;-40
2023/05/25 04:21:39;;;;;;;;;;;;;;;16.53;100.00;99782.06;5020671;28;20023;-40
2023/05/25 04:24:05;;;;;;;;;;;;;;;16.67;100.00;99784.06;5039706;28;19928;-40
2023/05/25 04:26:30;;;;;;;;;;;;;;;16.64;100.00;99790.25;5038583;28;19925;-40
2023/05/25 04:28:56;;;;;;;;;;;;;;;15.86;100.00;99807.41;5039009;28;19940;-40
2023/05/25 04:31:23;;;;;;;;;;;;;;;15.80;100.00;99832.78;5038750;28;19932;-40
2023/05/25 04:33:48;;;;;;;;;;;;;;;16.52;100.00;99814.19;5037020;28;20766;-40
2023/05/25 04:36:13;;;;;;;;;;;;;;;16.73;100.00;99805.44;5038656;28;19924;-40
2023/05/25 04:38:40;;;;;;;;;;;;;;;16.55;100.00;99805.41;5030869;28;19921;-40
2023/05/25 04:41:07;;;;;;;;;;;;;;;16.51;100.00;99820.28;5019843;28;19939;-40
2023/05/25 04:43:32;;;;;;;;;;;;;;;16.48;100.00;99825.63;5038510;28;20667;-40
2023/05/25 04:45:58;;;;;;;;;;;;;;;16.84;100.00;99817.16;5013535;28;20015;-40
2023/05/25 04:48:24;;;;;;;;;;;;;;;16.65;100.00;99830.94;5039364;28;19920;-40
2023/05/25 04:50:49;;;;;;;;;;;;;;;16.87;100.00;99812.66;5036724;28;20140;-40
2023/05/25 04:53:14;;;;;;;;;;;;;;;17.07;100.00;99816.97;5036614;28;19917;-40
2023/05/25 04:55:39;;;;;;;;;;;;;;;17.13;100.00;99819.28;5035067;28;19921;-40
2023/05/25 04:58:05;;;;;;;;;;;;;;;17.23;100.00;99818.88;5018456;28;19921;-40
2023/05/25 05:00:30;;;;;;;;;;;;;;;17.19;100.00;99822.53;5036555;28;19928;-40
2023/05/25 05:02:56;;;;;;;;;;;;;;;17.41;100.00;99823.22;5033285;28;19920;-40
2023/05/25 05:05:21;;;;;;;;;;;;;;;17.46;100.00;99815.19;5017496;28;20428;-40
2023/05/25 05:07:46;;;;;;;;;;;;;;;17.55;100.00;99826.00;5035631;28;20045;-40
2023/05/25 05:10:12;;;;;;;;;;;;;;;17.62;100.00;99841.34;5037239;28;19916;-40
2023/05/25 05:12:37;;;;;;;;;;;;;;;17.97;100.00;99830.09;5015888;28;19959;-40
2023/05/25 05:15:03;;;;;;;;;;;;;;;18.16;100.00;99821.34;5034948;28;20408;-40
2023/05/25 05:17:29;;;;;;;;;;;;;;;18.18;100.00;99829.94;5037744;28;20414;-40
2023/05/25 05:19:54;;;;;;;;;;;;;;;18.15;100.00;99824.88;5037891;28;19962;-40
2023/05/25 05:22:20;;;;;;;;;;;;;;;18.19;100.00;99826.41;5040202;28;19920;-40
2023/05/25 05:24:45;;;;;;;;;;;;;;;17.34;100.00;99858.25;5040045;28;20881;-40
2023/05/25 05:27:12;;;;;;;;;;;;;;;18.34;100.00;99840.44;5039613;28;19986;-40
2023/05/25 05:29:38;;;;;;;;;;;;;;;18.60;100.00;99820.84;5036625;28;19917;-40
2023/05/25 05:32:03;;;;;;;;;;;;;;;18.60;100.00;99832.13;5038796;28;20460;-40
2023/05/25 05:34:29;;;;;;;;;;;;;;;18.72;100.00;99841.06;5037894;28;20112;-40
2023/05/25 05:36:54;;;;;;;;;;;;;;;18.72;100.00;99854.13;5038366;28;19917;-40
2023/05/25 05:39:19;;;;;;;;;;;;;;;18.71;100.00;99849.84;5038791;28;19920;-40
2023/05/25 05:41:45;;;;;;;;;;;;;;;18.84;100.00;99844.84;5020165;28;19924;-40
2023/05/25 05:44:11;;;;;;;;;;;;;;;16.46;100.00;99941.84;5038973;28;19921;-40
2023/05/25 05:46:36;;;;;;;;;;;;;;;17.01;100.00;99949.09;5036258;28;19993;-40
2023/05/25 05:49:02;;;;;;;;;;;;;;;17.51;100.00;99944.25;5038581;28;20011;-41
2023/05/25 05:51:27;;;;;;;;;;;;;;;18.76;100.00;99907.00;5038325;28;20342;-40
2023/05/25 05:53:52;;;;;;;;;;;;;;;19.16;100.00;99866.63;5037651;28;20461;-40
2023/05/25 05:56:18;;;;;;;;;;;;;;;17.32;100.00;99915.59;5037809;28;20460;-41
2023/05/25 05:58:43;;;;;;;;;;;;;;;16.76;100.00;99960.53;5038259;28;20440;-40
2023/05/25 06:01:08;;;;;;;;;;;;;;;15.80;100.00;99989.47;5037253;28;20036;-40
2023/05/25 06:03:33;;;;;;;;;;;;;;;16.15;100.00;100000.28;5037480;28;20647;-40
2023/05/25 06:05:59;;;;;;;;;;;;;;;16.11;100.00;100003.88;5037832;28;20020;-40
2023/05/25 06:08:24;;;;;;;;;;;;;;;16.39;100.00;100002.81;5037053;28;19920;-40
2023/05/25 06:10:50;;;;;;;;;;;;;;;18.22;100.00;99972.25;5019544;28;20378;-40
2023/05/25 06:13:15;;;;;;;;;;;;;;;18.52;100.00;99927.34;5035239;28;20174;-41
2023/05/25 06:15:40;;;;;;;;;;;;;;;16.24;100.00;99981.72;5036382;28;20294;-40
2023/05/25 06:18:06;;;;;;;;;;;;;;;16.15;100.00;100010.66;5037596;28;19917;-41
2023/05/25 06:20:31;;;;;;;;;;;;;;;15.74;100.00;100028.66;5035572;28;19923;-40
2023/05/25 06:22:56;;;;;;;;;;;;;;;16.53;100.00;100042.09;5037164;28;20328;-41
2023/05/25 06:25:22;;;;;;;;;;;;;;;16.85;100.00;100052.97;5037199;28;20051;-40
2023/05/25 06:27:47;;;;;;;;;;;;;;;16.27;100.00;100051.78;5036346;28;20019;-40
2023/05/25 06:30:13;;;;;;;;;;;;;;;18.77;100.00;100008.75;5037152;28;19927;-40
2023/05/25 06:32:38;;;;;;;;;;;;;;;16.35;100.00;100011.63;5037307;28;19921;-40
2023/05/25 06:35:04;;;;;;;;;;;;;;;17.69;100.00;100018.13;5020296;28;19941;-40
2023/05/25 06:37:34;;;;;;;;;;;;;;;18.06;100.00;99993.00;5038568;28;19924;-40
2023/05/25 06:39:59;;;;;;;;;;;;;;;18.40;100.00;99970.53;5021300;28;19924;-40
2023/05/25 06:42:25;;;;;;;;;;;;;;;17.41;100.00;99989.84;5039738;28;19917;-40
2023/05/25 06:44:50;;;;;;;;;;;;;;;17.82;100.00;99989.78;5037732;28;20600;-40
2023/05/25 06:47:15;;;;;;;;;;;;;;;17.25;100.00;100014.88;5038228;28;19925;-40
2023/05/25 06:49:40;;;;;;;;;;;;;;;17.20;100.00;100016.84;5037360;28;19936;-41
2023/05/25 06:52:06;;;;;;;;;;;;;;;16.12;100.00;100036.75;5036971;28;20365;-40
2023/05/25 06:54:31;;;;;;;;;;;;;;;18.38;100.00;100025.38;5037699;28;20510;-40
2023/05/25 06:56:57;;;;;;;;;;;;;;;17.60;100.00;100021.13;5037236;28;19916;-40
2023/05/25 06:59:22;;;;;;;;;;;;;;;18.57;100.00;99974.94;5036470;28;19955;-41
2023/05/25 07:01:47;;;;;;;;;;;;;;;17.79;100.00;99995.13;5036319;28;19959;-41
2023/05/25 07:04:12;;;;;;;;;;;;;;;17.60;100.00;100004.66;5035520;28;19974;-40
2023/05/25 07:06:38;;;;;;;;;;;;;;;17.28;100.00;100019.94;5036586;28;19931;-41
2023/05/25 07:09:03;;;;;;;;;;;;;;;17.88;100.00;100015.56;5037547;28;19939;-41
2023/05/25 07:11:29;;;;;;;;;;;;;;;17.80;100.00;100042.84;5035793;28;19932;-41
2023/05/25 07:13:54;;;;;;;;;;;;;;;18.05;100.00;99985.25;5037064;28;19913;-40
2023/05/25 07:16:19;;;;;;;;;;;;;;;18.10;100.00;99993.72;5034328;28;19984;-40
2023/05/25 07:18:44;;;;;;;;;;;;;;;19.32;100.00;99949.41;5036517;28;19920;-41
2023/05/25 07:21:09;;;;;;;;;;;;;;;18.68;100.00;99970.03;5034862;28;20476;-41
2023/05/25 07:23:35;;;;;;;;;;;;;;;18.54;100.00;99988.97;5035421;28;19920;-41
2023/05/25 07:26:01;;;;;;;;;;;;;;;18.58;100.00;100018.34;5036790;28;19928;-41
2023/05/25 07:28:26;;;;;;;;;;;;;;;17.78;100.00;100032.50;5035778;28;20177;-41
2023/05/25 07:30:51;;;;;;;;;;;;;;;17.83;100.00;100033.16;5035612;28;19925;-41
2023/05/25 07:33:16;;;;;;;;;;;;;;;18.31;100.00;99992.66;5037122;28;19924;-41
2023/05/25 07:35:42;;;;;;;;;;;;;;;18.05;100.00;99998.28;5040228;28;19924;-40
2023/05/25 07:38:07;;;;;;;;;;;;;;;17.59;100.00;100055.09;5039867;28;20104;-41
2023/05/25 07:40:33;;;;;;;;;;;;;;;17.28;100.00;100030.34;5040877;28;19924;-41
2023/05/25 07:42:58;;;;;;;;;;;;;;;16.39;100.00;100068.63;5040234;28;19920;-41
2023/05/25 07:45:23;;;;;;;;;;;;;;;17.58;100.00;100055.97;5040358;28;19917;-41
2023/05/25 07:47:48;;;;;;;;;;;;;;;17.21;100.00;100065.38;5039116;28;20300;-41
2023/05/25 07:50:14;;;;;;;;;;;;;;;18.15;100.00;100039.50;5040918;28;19951;-41
2023/05/25 07:52:39;;;;;;;;;;;;;;;18.05;100.00;100043.44;5040485;28;20004;-41
2023/05/25 07:55:05;;;;;;;;;;;;;;;18.16;100.00;100011.69;5038835;28;19917;-41
2023/05/25 07:57:30;;;;;;;;;;;;;;;19.43;100.00;99987.06;5040314;28;20344;-40
2023/05/25 07:59:55;;;;;;;;;;;;;;;19.18;100.00;99990.13;5039598;28;20602;-41
2023/05/25 08:02:21;;;;;;;;;;;;;;;18.49;100.00;99977.91;5039984;28;19921;-41
2023/05/25 08:04:46;;;;;;;;;;;;;;;17.41;100.00;100015.91;5042541;28;20357;-41
2023/05/25 08:07:11;;;;;;;;;;;;;;;19.18;100.00;99997.09;5041874;28;20477;-41
2023/05/25 08:09:36;;;;;;;;;;;;;;;18.65;100.00;99993.63;5042413;28;20354;-41
2023/05/25 08:12:02;;;;;;;;;;;;;;;18.55;100.00;99995.03;5042435;28;20599;-41
2023/05/25 08:14:27;;;;;;;;;;;;;;;19.78;100.00;99960.00;5037846;28;19920;-41
2023/05/25 08:16:53;;;;;;;;;;;;;;;19.16;100.00;99965.03;5041092;28;19921;-41
2023/05/25 08:19:18;;;;;;;;;;;;;;;20.50;100.00;99940.22;5041124;28;19921;-41
2023/05/25 08:21:43;;;;;;;;;;;;;;;18.51;100.00;99954.34;5041031;28;20362;-41
2023/05/25 08:24:08;;;;;;;;;;;;;;;17.06;100.00;100018.28;5040185;28;19917;-41
2023/05/25 08:26:37;;;;;;;;;;;;;;;18.57;100.00;99977.53;5037469;28;19936;-41
2023/05/25 08:29:03;;;;;;;;;;;;;;;19.19;100.00;99972.69;5039168;28;19974;-41
2023/05/25 08:31:28;;;;;;;;;;;;;;;18.29;100.00;99984.09;5036878;28;19916;-41
2023/05/25 08:33:53;;;;;;;;;;;;;;;18.30;100.00;99995.38;5035397;28;19920;-41
2023/05/25 08:36:18;;;;;;;;;;;;;;;19.90;100.00;99956.69;5035675;28;20435;-41
2023/05/25 08:38:44;;;;;;;;;;;;;;;19.53;100.00;99976.97;5034403;28;20678;-41
2023/05/25 08:41:09;;;;;;;;;;;;;;;17.91;100.00;100010.19;5035891;28;20412;-41
2023/05/25 08:43:35;;;;;;;;;;;;;;;19.95;100.00;99954.66;5019201;28;19921;-41
2023/05/25 08:46:02;;;;;;;;;;;;;;;19.69;100.00;99950.88;5035726;28;20433;-41
2023/05/25 08:48:28;;;;;;;;;;;;;;;19.83;100.00;99947.53;5037806;28;20011;-41
2023/05/25 08:50:53;;;;;;;;;;;;;;;18.68;100.00;99977.84;5020313;28;19928;-41
2023/05/25 08:53:18;;;;;;;;;;;;;;;17.63;100.00;100030.56;5018650;28;19924;-41
2023/05/25 08:55:43;;;;;;;;;;;;;;;20.70;100.00;99957.44;5020958;28;19921;-41
2023/05/25 08:58:10;;;;;;;;;;;;;;;21.58;100.00;99905.84;5040048;28;20337;-41
2023/05/25 09:00:35;;;;;;;;;;;;;;;20.14;100.00;99927.50;5019282;28;20320;-41
2023/05/25 09:03:19;;;;;;;;;;;;;;;18.15;100.00;99986.50;5018980;28;19921;-41
2023/05/25 09:05:45;;;;;;;;;;;;;;;19.91;100.00;99995.00;5020437;28;19917;-41
2023/05/25 09:08:10;;;;;;;;;;;;;;;19.01;100.00;99985.75;5036524;28;19951;-41
2023/05/25 09:10:36;;;;;;;;;;;;;;;18.62;100.00;99988.59;5019773;28;20320;-40
2023/05/25 09:13:01;;;;;;;;;;;;;;;18.90;100.00;99988.06;5037713;28;19916;-41
2023/05/25 09:15:27;;;;;;;;;;;;;;;18.86;100.00;99998.75;5036297;28;20189;-41
2023/05/25 09:17:52;;;;;;;;;;;;;;;18.48;100.00;100024.94;5037464;28;19959;-41
2023/05/25 09:20:17;;;;;;;;;;;;;;;18.44;100.00;100032.06;5035127;28;19920;-41
2023/05/25 09:22:43;;;;;;;;;;;;;;;18.59;100.00;100043.53;5019487;28;19982;-41
2023/05/25 09:25:08;;;;;;;;;;;;;;;17.72;100.00;100028.41;5037693;28;19917;-41
2023/05/25 09:27:34;;;;;;;;;;;;;;;17.97;100.00;100030.78;4957451;28;1791291;-41
2023/05/25 09:30:00;;;;;;;;;;;;;;;19.77;100.00;99984.44;5037998;28;20282;-41
2023/05/25 09:32:25;;;;;;;;;;;;;;;18.79;100.00;100003.41;5020926;28;20421;-41
2023/05/25 09:34:52;;;;;;;;;;;;;;;19.08;100.00;99988.91;5018099;28;19921;-41
2023/05/25 09:37:20;;;;;;;;;;;;;;;19.40;100.00;99979.38;5036564;28;19978;-41
2023/05/25 09:39:46;;;;;;;;;;;;;;;18.60;100.00;99993.03;5038436;28;19916;-41
2023/05/25 09:42:11;;;;;;;;;;;;;;;19.57;100.00;99969.81;5038910;28;19912;-41
2023/05/25 09:44:37;;;;;;;;;;;;;;;20.50;100.00;99965.56;5034680;28;19987;-41
2023/05/25 09:47:03;;;;;;;;;;;;;;;19.17;100.00;100003.25;5038175;28;19925;-41
2023/05/25 09:49:28;;;;;;;;;;;;;;;18.02;100.00;100040.13;5038298;28;20319;-41
2023/05/25 09:51:53;;;;;;;;;;;;;;;19.51;100.00;100015.41;5038806;28;19916;-41
2023/05/25 09:54:18;;;;;;;;;;;;;;;17.73;100.00;100029.25;5036372;28;19920;-41
2023/05/25 09:56:44;;;;;;;;;;;;;;;19.39;100.00;100039.56;5018802;28;19923;-41
2023/05/25 09:59:10;;;;;;;;;;;;;;;19.33;100.00;100000.69;5037257;28;19917;-41
2023/05/25 10:01:35;;;;;;;;;;;;;;;17.13;100.00;100043.13;5037468;28;20004;-41
2023/05/25 10:04:00;;;;;;;;;;;;;;;16.30;100.00;100119.22;5037926;28;20059;-41
2023/05/25 10:06:26;;;;;;;;;;;;;;;16.28;100.00;100128.84;5018991;28;20405;-41
2023/05/25 10:08:52;;;;;;;;;;;;;;;15.70;100.00;100149.09;5037527;28;19978;-41
2023/05/25 10:11:18;;;;;;;;;;;;;;;16.26;100.00;100164.47;5036562;28;20000;-41
2023/05/25 10:13:44;;;;;;;;;;;;;;;17.44;100.00;100130.34;5020026;28;20031;-41
2023/05/25 10:16:16;;;;;;;;;;;;;;;15.89;100.00;100134.59;5034901;28;20432;-41
2023/05/25 10:18:43;;;;;;;;;;;;;;;16.75;100.00;100142.69;5037320;28;19959;-41
2023/05/25 10:21:09;;;;;;;;;;;;;;;16.35;100.00;100147.66;5017388;28;20393;-41
2023/05/25 10:23:34;;;;;;;;;;;;;;;15.87;100.00;100146.81;5018981;28;19917;-41
2023/05/25 10:26:00;;;;;;;;;;;;;;;17.07;100.00;100118.84;5019397;28;20394;-40
2023/05/25 10:28:30;;;;;;;;;;;;;;;16.51;100.00;100114.13;5018877;28;19921;-40
2023/05/25 10:30:58;;;;;;;;;;;;;;;15.86;100.00;100145.09;5018671;28;20309;-40
2023/05/25 10:33:23;;;;;;;;;;;;;;;15.85;100.00;100153.81;5036798;28;19917;-40
2023/05/25 10:35:49;;;;;;;;;;;;;;;16.92;100.00;100143.75;5036441;28;19927;-40
2023/05/25 10:38:14;;;;;;;;;;;;;;;16.89;100.00;100127.41;5036204;28;19924;-40
2023/05/25 10:40:40;;;;;;;;;;;;;;;17.21;100.00;100128.69;5035956;28;20368;-40
2023/05/25 10:43:05;;;;;;;;;;;;;;;17.62;100.00;100086.19;5018816;28;20377;-40
2023/05/25 10:45:30;;;;;;;;;;;;;;;17.40;100.00;100092.31;5032530;28;19927;-40
2023/05/25 10:47:55;;;;;;;;;;;;;;;16.83;100.00;100107.69;5031606;28;20022;-40
2023/05/25 10:50:25;;;;;;;;;;;;;;;17.66;100.00;100116.41;5001472;28;19912;-40
2023/05/25 10:53:06;;;;;;;;;;;;;;;18.42;100.00;100033.88;5036419;28;20621;-40
2023/05/25 10:56:00;;;;;;;;;;;;;;;18.40;100.00;100056.59;5038553;28;19920;-40
2023/05/25 10:58:26;;;;;;;;;;;;;;;18.76;100.00;99999.16;5008765;28;20476;-40
2023/05/25 11:00:59;;;;;;;;;;;;;;;18.09;100.00;100013.72;5036013;28;20149;-40
2023/05/25 11:03:42;;;;;;;;;;;;;;;18.63;100.00;100011.13;5015712;28;19925;-41
2023/05/25 11:06:09;;;;;;;;;;;;;;;18.38;100.00;100008.88;5036720;28;19920;-40
2023/05/25 11:08:51;;;;;;;;;;;;;;;18.74;100.00;100016.66;5011203;28;19931;-40
2023/05/25 11:11:16;;;;;;;;;;;;;;;18.33;100.00;100016.91;5018020;28;20338;-41
2023/05/25 11:13:45;;;;;;;;;;;;;;;19.78;100.00;100020.13;5036273;28;19920;-40
2023/05/25 11:16:20;;;;;;;;;;;;;;;19.44;100.00;99975.69;5034811;28;20015;-41
2023/05/25 11:18:56;;;;;;;;;;;;;;;18.87;100.00;100000.44;5034552;28;20080;-40
2023/05/25 11:21:25;;;;;;;;;;;;;;;19.01;100.00;100005.81;5035977;28;19944;-41
2023/05/25 11:24:05;;;;;;;;;;;;;;;20.09;100.00;99981.81;5037020;28;19925;-40
2023/05/25 11:26:34;;;;;;;;;;;;;;;21.26;100.00;99976.78;5037051;28;19998;-40
2023/05/25 11:28:59;;;;;;;;;;;;;;;20.16;100.00;99962.25;5037532;28;19931;-40
2023/05/25 11:31:32;;;;;;;;;;;;;;;18.45;100.00;100009.41;5037262;28;19921;-40
2023/05/25 11:33:57;;;;;;;;;;;;;;;21.30;100.00;99969.56;5035568;28;20166;-40
2023/05/25 11:36:23;;;;;;;;;;;;;;;20.13;100.00;99975.50;5036433;28;20130;-41
2023/05/25 11:38:51;;;;;;;;;;;;;;;21.25;100.00;99954.13;5034874;28;19927;-41
2023/05/25 11:41:22;;;;;;;;;;;;;;;21.23;100.00;99935.06;5036026;28;19917;-41
2023/05/25 11:43:48;;;;;;;;;;;;;;;20.87;100.00;99944.19;5036544;28;20592;-41
2023/05/25 11:46:20;;;;;;;;;;;;;;;20.53;100.00;99942.69;5035547;28;19920;-41
2023/05/25 11:48:49;;;;;;;;;;;;;;;19.86;100.00;99949.94;5036419;28;19928;-41
2023/05/25 11:51:14;;;;;;;;;;;;;;;19.43;100.00;99955.72;5035671;28;19921;-41
2023/05/25 11:53:40;;;;;;;;;;;;;;;19.84;100.00;99944.84;5035563;28;19963;-41
2023/05/25 11:56:05;;;;;;;;;;;;;;;19.61;100.00;99977.41;5017463;28;19939;-41
2023/05/25 11:58:34;;;;;;;;;;;;;;;19.31;100.00;99984.25;5032705;28;19948;-41
2023/05/25 12:01:13;;;;;;;;;;;;;;;21.16;100.00;99914.53;5015905;28;20400;-41
2023/05/25 12:03:38;;;;;;;;;;;;;;;21.72;100.00;99905.78;5033480;28;19921;-41
2023/05/25 12:06:04;;;;;;;;;;;;;;;19.41;100.00;99967.19;5033819;28;20937;-40
2023/05/25 12:08:32;;;;;;;;;;;;;;;19.85;100.00;99953.50;5033551;28;20390;-40
2023/05/25 12:10:57;;;;;;;;;;;;;;;20.24;100.00;99960.06;5034374;28;20389;-41
2023/05/25 12:13:23;;;;;;;;;;;;;;;20.09;100.00;99951.28;5031430;28;19942;-41
2023/05/25 12:15:48;;;;;;;;;;;;;;;22.32;100.00;99930.78;5014224;28;21005;-40
2023/05/25 12:18:13;;;;;;;;;;;;;;;22.13;100.00;99927.66;5037504;28;20003;-40
2023/05/25 12:20:40;;;;;;;;;;;;;;;21.92;100.00;99922.03;5037724;28;19917;-40
2023/05/25 12:23:05;;;;;;;;;;;;;;;21.87;100.00;99905.75;5039144;28;20008;-40
2023/05/25 12:25:30;;;;;;;;;;;;;;;22.95;100.00;99905.56;5021427;28;20007;-41
2023/05/25 12:28:11;;;;;;;;;;;;;;;23.18;100.00;99905.78;5038629;28;20019;-41